Terminal Aerodrome Forecast
Issued by NWS Wilmington, NC

Home | Current Version | Previous Version | Text Only | Print | Product List | Glossary On
Versions: 1 2 3 4 5 6 7 8 9 10 11 12 13 14 15 16 17 18 19 20 21 22 23 24 25 26
000
FTUS42 KILM 041300 AAA
TAFLBT
TAF AMD
KLBT 041355Z 0414/0512 22008KT 3SM BR OVC004 WS010/23036KT
     FM041600 22011G19KT P6SM BKN008
     FM041900 23015G23KT P6SM BKN025
     FM042200 22011G16KT P6SM SCT100 SCT250
     FM050600 22008KT 2SM BR BKN003=

USA.gov is the U.S. government's official web portal to all federal, state and local government web resources and services.